sensor_id;sensor_type;location;lat;lon;timestamp;pressure;altitude;pressure_sealevel;temperature;humidity
53647;BME280;39550;52.230;5.194;2023-04-26T00:00:13;101842.19;;;8.41;71.55
53647;BME280;39550;52.230;5.194;2023-04-26T00:02:39;101835.25;;;8.38;71.63
53647;BME280;39550;52.230;5.194;2023-04-26T00:05:05;101836.13;;;8.39;71.26
53647;BME280;39550;52.230;5.194;2023-04-26T00:07:31;101837.00;;;8.39;71.08
53647;BME280;39550;52.230;5.194;2023-04-26T00:09:58;101833.50;;;8.37;71.90
53647;BME280;39550;52.230;5.194;2023-04-26T00:12:23;101834.22;;;8.33;71.88
53647;BME280;39550;52.230;5.194;2023-04-26T00:14:49;101836.78;;;8.33;71.30
53647;BME280;39550;52.230;5.194;2023-04-26T00:17:15;101841.97;;;8.34;71.79
53647;BME280;39550;52.230;5.194;2023-04-26T00:19:40;101840.25;;;8.33;71.82
53647;BME280;39550;52.230;5.194;2023-04-26T00:22:06;101839.31;;;8.31;71.40
53647;BME280;39550;52.230;5.194;2023-04-26T00:24:32;101846.19;;;8.32;72.11
53647;BME280;39550;52.230;5.194;2023-04-26T00:26:58;101841.00;;;8.31;72.07
53647;BME280;39550;52.230;5.194;2023-04-26T00:29:26;101839.31;;;8.31;71.39
53647;BME280;39550;52.230;5.194;2023-04-26T00:31:51;101834.13;;;8.30;71.94
53647;BME280;39550;52.230;5.194;2023-04-26T00:34:17;101823.00;;;8.29;71.54
53647;BME280;39550;52.230;5.194;2023-04-26T00:36:42;101824.66;;;8.29;71.76
53647;BME280;39550;52.230;5.194;2023-04-26T00:42:31;101822.88;;;8.26;72.03
53647;BME280;39550;52.230;5.194;2023-04-26T00:44:56;101827.94;;;8.25;71.76
53647;BME280;39550;52.230;5.194;2023-04-26T00:47:23;101821.91;;;8.23;71.89
53647;BME280;39550;52.230;5.194;2023-04-26T00:49:49;101833.03;;;8.23;71.49
53647;BME280;39550;52.230;5.194;2023-04-26T00:52:16;101834.75;;;8.23;71.57
53647;BME280;39550;52.230;5.194;2023-04-26T00:54:42;101826.09;;;8.21;71.61
53647;BME280;39550;52.230;5.194;2023-04-26T01:07:21;101830.28;;;8.17;72.01
53647;BME280;39550;52.230;5.194;2023-04-26T01:09:47;101806.91;;;8.09;71.64
53647;BME280;39550;52.230;5.194;2023-04-26T01:12:13;101794.59;;;7.99;71.95
53647;BME280;39550;52.230;5.194;2023-04-26T01:14:39;101811.84;;;8.03;72.21
53647;BME280;39550;52.230;5.194;2023-04-26T01:17:05;101827.53;;;8.12;71.77
53647;BME280;39550;52.230;5.194;2023-04-26T01:19:30;101773.31;;;7.77;71.96
53647;BME280;39550;52.230;5.194;2023-04-26T01:21:56;101749.72;;;7.62;71.74
53647;BME280;39550;52.230;5.194;2023-04-26T01:24:22;101804.72;;;7.96;71.37
53647;BME280;39550;52.230;5.194;2023-04-26T01:26:47;101835.25;;;8.12;72.11
53647;BME280;39550;52.230;5.194;2023-04-26T01:29:17;101825.44;;;8.00;71.69
53647;BME280;39550;52.230;5.194;2023-04-26T01:31:43;101807.25;;;7.94;72.00
53647;BME280;39550;52.230;5.194;2023-04-26T01:34:09;101813.31;;;7.96;71.83
53647;BME280;39550;52.230;5.194;2023-04-26T01:36:34;101807.19;;;7.93;71.70
53647;BME280;39550;52.230;5.194;2023-04-26T01:39:00;101711.03;;;7.31;71.43
53647;BME280;39550;52.230;5.194;2023-04-26T01:41:25;101727.28;;;7.32;71.53
53647;BME280;39550;52.230;5.194;2023-04-26T01:43:51;101695.22;;;7.19;71.31
53647;BME280;39550;52.230;5.194;2023-04-26T01:46:17;101739.72;;;7.45;71.58
53647;BME280;39550;52.230;5.194;2023-04-26T01:48:42;101741.47;;;7.46;72.17
53647;BME280;39550;52.230;5.194;2023-04-26T01:51:07;101827.13;;;8.00;72.26
53647;BME280;39550;52.230;5.194;2023-04-26T01:53:33;101811.53;;;7.94;71.92
53647;BME280;39550;52.230;5.194;2023-04-26T01:56:02;101802.72;;;7.87;72.01
53647;BME280;39550;52.230;5.194;2023-04-26T01:58:28;101827.06;;;7.98;71.60
53647;BME280;39550;52.230;5.194;2023-04-26T02:00:53;101751.84;;;7.49;71.43
53647;BME280;39550;52.230;5.194;2023-04-26T02:03:19;101763.97;;;7.54;71.91
53647;BME280;39550;52.230;5.194;2023-04-26T02:05:45;101830.41;;;7.96;71.50
53647;BME280;39550;52.230;5.194;2023-04-26T02:08:10;101791.00;;;7.70;71.54
53647;BME280;39550;52.230;5.194;2023-04-26T02:10:36;101805.72;;;7.75;71.66
53647;BME280;39550;52.230;5.194;2023-04-26T02:13:01;101766.34;;;7.49;71.82
53647;BME280;39550;52.230;5.194;2023-04-26T02:15:26;101826.78;;;7.89;71.47
53647;BME280;39550;52.230;5.194;2023-04-26T02:17:52;101817.84;;;7.79;71.61
53647;BME280;39550;52.230;5.194;2023-04-26T02:20:18;101750.66;;;7.40;71.55
53647;BME280;39550;52.230;5.194;2023-04-26T02:22:44;101834.47;;;7.89;71.67
53647;BME280;39550;52.230;5.194;2023-04-26T02:25:09;101829.25;;;7.88;71.85
53647;BME280;39550;52.230;5.194;2023-04-26T02:27:36;101835.25;;;7.87;71.29
53647;BME280;39550;52.230;5.194;2023-04-26T02:30:01;101832.53;;;7.83;71.44
53647;BME280;39550;52.230;5.194;2023-04-26T02:32:27;101788.84;;;7.56;71.67
53647;BME280;39550;52.230;5.194;2023-04-26T02:34:52;101835.09;;;7.83;71.90
53647;BME280;39550;52.230;5.194;2023-04-26T02:37:17;101811.56;;;7.71;71.66
53647;BME280;39550;52.230;5.194;2023-04-26T02:39:43;101841.06;;;7.82;71.35
53647;BME280;39550;52.230;5.194;2023-04-26T02:42:08;101741.63;;;7.27;71.24
53647;BME280;39550;52.230;5.194;2023-04-26T02:44:34;101753.91;;;7.36;71.48
53647;BME280;39550;52.230;5.194;2023-04-26T02:47:00;101815.78;;;7.69;71.43
53647;BME280;39550;52.230;5.194;2023-04-26T02:49:26;101773.97;;;7.47;71.08
53647;BME280;39550;52.230;5.194;2023-04-26T02:51:51;101749.44;;;7.30;71.37
53647;BME280;39550;52.230;5.194;2023-04-26T02:54:17;101685.66;;;6.91;71.08
53647;BME280;39550;52.230;5.194;2023-04-26T02:56:42;101806.09;;;7.60;71.19
53647;BME280;39550;52.230;5.194;2023-04-26T02:59:08;101759.09;;;7.37;71.40
53647;BME280;39550;52.230;5.194;2023-04-26T03:01:33;101737.34;;;7.26;71.63
53647;BME280;39550;52.230;5.194;2023-04-26T03:03:58;101768.59;;;7.40;71.40
53647;BME280;39550;52.230;5.194;2023-04-26T03:06:24;101765.03;;;7.36;71.53
53647;BME280;39550;52.230;5.194;2023-04-26T03:08:49;101815.09;;;7.73;71.58
53647;BME280;39550;52.230;5.194;2023-04-26T03:11:14;101765.13;;;7.39;71.57
53647;BME280;39550;52.230;5.194;2023-04-26T03:13:40;101799.25;;;7.61;71.52
53647;BME280;39550;52.230;5.194;2023-04-26T03:16:05;101790.41;;;7.53;71.31
53647;BME280;39550;52.230;5.194;2023-04-26T03:18:33;101734.59;;;7.21;71.28
53647;BME280;39550;52.230;5.194;2023-04-26T03:20:58;101780.75;;;7.45;71.13
53647;BME280;39550;52.230;5.194;2023-04-26T03:23:24;101809.47;;;7.59;71.54
53647;BME280;39550;52.230;5.194;2023-04-26T03:25:50;101757.13;;;7.30;71.32
53647;BME280;39550;52.230;5.194;2023-04-26T03:28:15;101770.88;;;7.32;71.41
53647;BME280;39550;52.230;5.194;2023-04-26T03:30:41;101805.09;;;7.57;71.39
53647;BME280;39550;52.230;5.194;2023-04-26T03:33:06;101764.06;;;7.32;71.27
53647;BME280;39550;52.230;5.194;2023-04-26T03:35:31;101812.09;;;7.61;70.99
53647;BME280;39550;52.230;5.194;2023-04-26T03:37:57;101790.38;;;7.51;71.26
53647;BME280;39550;52.230;5.194;2023-04-26T03:40:22;101750.97;;;7.25;70.72
53647;BME280;39550;52.230;5.194;2023-04-26T03:42:47;101786.75;;;7.46;70.87
53647;BME280;39550;52.230;5.194;2023-04-26T03:45:13;101756.25;;;7.29;71.13
53647;BME280;39550;52.230;5.194;2023-04-26T03:47:38;101743.06;;;7.19;70.92
53647;BME280;39550;52.230;5.194;2023-04-26T03:50:04;101742.94;;;7.15;70.95
53647;BME280;39550;52.230;5.194;2023-04-26T03:52:30;101813.75;;;7.59;70.97
53647;BME280;39550;52.230;5.194;2023-04-26T03:54:55;101805.81;;;7.53;70.46
53647;BME280;39550;52.230;5.194;2023-04-26T03:57:21;101747.16;;;7.13;70.99
53647;BME280;39550;52.230;5.194;2023-04-26T03:59:46;101754.06;;;7.16;70.83
53647;BME280;39550;52.230;5.194;2023-04-26T04:02:11;101784.69;;;7.36;71.20
53647;BME280;39550;52.230;5.194;2023-04-26T04:04:36;101787.31;;;7.37;70.82
53647;BME280;39550;52.230;5.194;2023-04-26T04:07:02;101815.25;;;7.54;71.40
53647;BME280;39550;52.230;5.194;2023-04-26T04:09:27;101752.28;;;7.13;70.49
53647;BME280;39550;52.230;5.194;2023-04-26T04:11:53;101782.94;;;7.35;70.76
53647;BME280;39550;52.230;5.194;2023-04-26T04:14:18;101754.88;;;7.15;70.99
53647;BME280;39550;52.230;5.194;2023-04-26T04:16:44;101760.34;;;7.24;70.81
53647;BME280;39550;52.230;5.194;2023-04-26T04:19:09;101752.28;;;7.13;71.30
53647;BME280;39550;52.230;5.194;2023-04-26T04:21:34;101707.00;;;6.90;71.08
53647;BME280;39550;52.230;5.194;2023-04-26T04:24:00;101780.38;;;7.35;70.77
53647;BME280;39550;52.230;5.194;2023-04-26T04:26:26;101805.66;;;7.48;70.92
53647;BME280;39550;52.230;5.194;2023-04-26T04:28:52;101696.41;;;6.80;71.12
53647;BME280;39550;52.230;5.194;2023-04-26T04:31:19;101781.84;;;7.28;70.85
53647;BME280;39550;52.230;5.194;2023-04-26T04:33:45;101714.44;;;6.84;71.07
53647;BME280;39550;52.230;5.194;2023-04-26T04:36:11;101795.59;;;7.30;70.92
53647;BME280;39550;52.230;5.194;2023-04-26T04:38:36;101795.81;;;7.36;71.03
53647;BME280;39550;52.230;5.194;2023-04-26T04:41:02;101743.44;;;7.05;71.26
53647;BME280;39550;52.230;5.194;2023-04-26T04:43:28;101720.72;;;6.92;70.41
53647;BME280;39550;52.230;5.194;2023-04-26T04:45:53;101793.84;;;7.29;70.75
53647;BME280;39550;52.230;5.194;2023-04-26T04:48:19;101807.00;;;7.38;71.33
53647;BME280;39550;52.230;5.194;2023-04-26T04:50:45;101771.19;;;7.17;70.88
53647;BME280;39550;52.230;5.194;2023-04-26T04:53:11;101817.53;;;7.46;70.69
53647;BME280;39550;52.230;5.194;2023-04-26T04:55:39;101814.69;;;7.38;70.60
53647;BME280;39550;52.230;5.194;2023-04-26T04:58:05;101812.94;;;7.37;70.20
53647;BME280;39550;52.230;5.194;2023-04-26T05:00:31;101744.94;;;7.00;70.44
53647;BME280;39550;52.230;5.194;2023-04-26T05:02:56;101834.66;;;7.47;70.93
53647;BME280;39550;52.230;5.194;2023-04-26T05:05:22;101808.38;;;7.28;70.61
53647;BME280;39550;52.230;5.194;2023-04-26T05:07:47;101826.94;;;7.45;70.77
53647;BME280;39550;52.230;5.194;2023-04-26T05:10:13;101742.97;;;6.93;70.42
53647;BME280;39550;52.230;5.194;2023-04-26T05:12:39;101833.66;;;7.43;70.14
53647;BME280;39550;52.230;5.194;2023-04-26T05:15:05;101804.09;;;7.29;70.09
53647;BME280;39550;52.230;5.194;2023-04-26T05:17:32;101816.97;;;7.30;69.94
53647;BME280;39550;52.230;5.194;2023-04-26T05:19:57;101761.25;;;7.02;70.30
53647;BME280;39550;52.230;5.194;2023-04-26T05:22:23;101833.81;;;7.46;70.40
53647;BME280;39550;52.230;5.194;2023-04-26T05:24:48;101807.81;;;7.37;70.22
53647;BME280;39550;52.230;5.194;2023-04-26T05:27:14;101808.47;;;7.31;69.89
53647;BME280;39550;52.230;5.194;2023-04-26T05:29:40;101806.88;;;7.35;70.24
53647;BME280;39550;52.230;5.194;2023-04-26T05:32:05;101842.72;;;7.56;69.75
53647;BME280;39550;52.230;5.194;2023-04-26T05:34:31;101812.34;;;7.44;69.65
53647;BME280;39550;52.230;5.194;2023-04-26T05:36:56;101836.81;;;7.59;69.38
53647;BME280;39550;52.230;5.194;2023-04-26T05:39:22;101800.72;;;7.30;69.95
53647;BME280;39550;52.230;5.194;2023-04-26T05:41:47;101831.34;;;7.49;70.09
53647;BME280;39550;52.230;5.194;2023-04-26T05:44:13;101778.25;;;7.23;69.65
53647;BME280;39550;52.230;5.194;2023-04-26T05:46:41;101823.66;;;7.49;70.10
53647;BME280;39550;52.230;5.194;2023-04-26T05:49:06;101793.03;;;7.30;69.73
53647;BME280;39550;52.230;5.194;2023-04-26T05:51:32;101783.47;;;7.26;69.95
53647;BME280;39550;52.230;5.194;2023-04-26T05:53:57;101835.97;;;7.60;69.84
53647;BME280;39550;52.230;5.194;2023-04-26T05:56:23;101835.22;;;7.62;69.79
53647;BME280;39550;52.230;5.194;2023-04-26T05:58:50;101822.75;;;7.49;69.49
53647;BME280;39550;52.230;5.194;2023-04-26T06:01:15;101848.09;;;7.64;69.60
53647;BME280;39550;52.230;5.194;2023-04-26T06:03:41;101846.25;;;7.60;69.91
53647;BME280;39550;52.230;5.194;2023-04-26T06:06:06;101751.81;;;7.01;69.62
53647;BME280;39550;52.230;5.194;2023-04-26T06:08:32;101768.41;;;7.11;70.30
53647;BME280;39550;52.230;5.194;2023-04-26T06:10:58;101753.56;;;7.02;69.91
53647;BME280;39550;52.230;5.194;2023-04-26T06:13:23;101778.00;;;7.16;70.03
53647;BME280;39550;52.230;5.194;2023-04-26T06:15:48;101768.94;;;7.02;70.15
53647;BME280;39550;52.230;5.194;2023-04-26T06:18:14;101851.16;;;7.54;70.83
53647;BME280;39550;52.230;5.194;2023-04-26T06:20:39;101846.03;;;7.54;70.57
53647;BME280;39550;52.230;5.194;2023-04-26T06:23:07;101847.78;;;7.55;70.18
53647;BME280;39550;52.230;5.194;2023-04-26T06:25:32;101851.09;;;7.52;70.13
53647;BME280;39550;52.230;5.194;2023-04-26T06:27:58;101779.75;;;7.18;70.26
53647;BME280;39550;52.230;5.194;2023-04-26T06:30:23;101856.63;;;7.63;69.81
53647;BME280;39550;52.230;5.194;2023-04-26T06:32:49;101815.41;;;7.34;70.09
53647;BME280;39550;52.230;5.194;2023-04-26T06:35:14;101806.72;;;7.30;69.85
53647;BME280;39550;52.230;5.194;2023-04-26T06:37:40;101862.38;;;7.57;70.67
53647;BME280;39550;52.230;5.194;2023-04-26T06:40:06;101808.13;;;7.22;69.94
53647;BME280;39550;52.230;5.194;2023-04-26T06:42:32;101813.66;;;7.33;70.43
53647;BME280;39550;52.230;5.194;2023-04-26T06:44:57;101862.53;;;7.60;70.18
53647;BME280;39550;52.230;5.194;2023-04-26T06:47:23;101761.13;;;6.99;70.55
53647;BME280;39550;52.230;5.194;2023-04-26T06:49:48;101860.66;;;7.80;70.62
53647;BME280;39550;52.230;5.194;2023-04-26T06:52:13;101734.47;;;6.94;69.93
53647;BME280;39550;52.230;5.194;2023-04-26T06:54:40;101799.31;;;7.38;70.33
53647;BME280;39550;52.230;5.194;2023-04-26T06:57:05;101782.38;;;7.19;70.63
53647;BME280;39550;52.230;5.194;2023-04-26T06:59:30;101853.03;;;7.58;72.52
53647;BME280;39550;52.230;5.194;2023-04-26T07:01:56;101799.56;;;7.22;71.58
53647;BME280;39550;52.230;5.194;2023-04-26T07:04:21;101854.63;;;7.56;71.02
53647;BME280;39550;52.230;5.194;2023-04-26T07:06:46;101851.25;;;7.57;71.88
53647;BME280;39550;52.230;5.194;2023-04-26T07:09:15;101776.25;;;7.15;70.82
53647;BME280;39550;52.230;5.194;2023-04-26T07:11:44;101798.88;;;7.26;71.37
53647;BME280;39550;52.230;5.194;2023-04-26T07:14:10;101809.56;;;7.38;70.73
53647;BME280;39550;52.230;5.194;2023-04-26T07:16:36;101849.66;;;7.59;72.15
53647;BME280;39550;52.230;5.194;2023-04-26T07:19:01;101706.63;;;6.80;71.37
53647;BME280;39550;52.230;5.194;2023-04-26T07:21:27;101768.63;;;7.17;71.21
53647;BME280;39550;52.230;5.194;2023-04-26T07:23:54;101680.66;;;6.71;71.11
53647;BME280;39550;52.230;5.194;2023-04-26T07:26:20;101757.44;;;7.15;70.90
53647;BME280;39550;52.230;5.194;2023-04-26T07:28:45;101797.78;;;7.43;70.42
53647;BME280;39550;52.230;5.194;2023-04-26T07:31:11;101866.56;;;7.78;70.04
53647;BME280;39550;52.230;5.194;2023-04-26T07:33:36;101800.13;;;7.37;72.09
53647;BME280;39550;52.230;5.194;2023-04-26T07:36:02;101810.53;;;7.42;72.17
53647;BME280;39550;52.230;5.194;2023-04-26T07:38:27;101879.34;;;7.76;72.01
53647;BME280;39550;52.230;5.194;2023-04-26T07:40:54;101862.69;;;7.65;72.50
53647;BME280;39550;52.230;5.194;2023-04-26T07:43:20;101755.19;;;7.00;72.00
53647;BME280;39550;52.230;5.194;2023-04-26T07:45:45;101765.44;;;7.00;71.94
53647;BME280;39550;52.230;5.194;2023-04-26T07:48:11;101880.09;;;7.74;72.56
53647;BME280;39550;52.230;5.194;2023-04-26T07:50:36;101783.03;;;7.13;71.82
53647;BME280;39550;52.230;5.194;2023-04-26T07:53:02;101769.75;;;7.01;72.04
53647;BME280;39550;52.230;5.194;2023-04-26T07:55:27;101887.63;;;7.69;70.65
53647;BME280;39550;52.230;5.194;2023-04-26T07:57:53;101898.81;;;7.71;70.91
53647;BME280;39550;52.230;5.194;2023-04-26T08:00:18;101870.56;;;7.47;71.26
53647;BME280;39550;52.230;5.194;2023-04-26T08:02:44;101887.41;;;7.63;71.13
53647;BME280;39550;52.230;5.194;2023-04-26T08:05:11;101902.28;;;7.72;71.05
53647;BME280;39550;52.230;5.194;2023-04-26T08:07:37;101876.91;;;7.57;70.47
53647;BME280;39550;52.230;5.194;2023-04-26T08:10:03;101836.72;;;7.33;71.15
53647;BME280;39550;52.230;5.194;2023-04-26T08:12:29;101775.41;;;6.92;70.77
53647;BME280;39550;52.230;5.194;2023-04-26T08:14:54;101855.72;;;7.38;71.17
53647;BME280;39550;52.230;5.194;2023-04-26T08:17:19;101875.91;;;7.53;70.56
53647;BME280;39550;52.230;5.194;2023-04-26T08:19:45;101880.28;;;7.56;71.17
53647;BME280;39550;52.230;5.194;2023-04-26T08:22:10;101871.03;;;7.59;70.40
53647;BME280;39550;52.230;5.194;2023-04-26T08:24:35;101849.31;;;7.49;70.53
53647;BME280;39550;52.230;5.194;2023-04-26T08:27:01;101834.28;;;7.36;71.08
53647;BME280;39550;52.230;5.194;2023-04-26T08:29:26;101816.88;;;7.27;71.07
53647;BME280;39550;52.230;5.194;2023-04-26T08:31:52;101887.84;;;7.75;71.16
53647;BME280;39550;52.230;5.194;2023-04-26T08:34:17;101863.19;;;7.55;71.37
53647;BME280;39550;52.230;5.194;2023-04-26T08:36:43;101832.81;;;7.43;70.47
53647;BME280;39550;52.230;5.194;2023-04-26T08:39:12;101869.47;;;7.63;70.43
53647;BME280;39550;52.230;5.194;2023-04-26T08:41:49;101838.81;;;7.43;70.34
53647;BME280;39550;52.230;5.194;2023-04-26T08:44:21;101810.75;;;7.24;70.35
53647;BME280;39550;52.230;5.194;2023-04-26T08:46:56;101792.59;;;7.18;70.35
53647;BME280;39550;52.230;5.194;2023-04-26T08:49:36;101887.97;;;7.78;70.07
53647;BME280;39550;52.230;5.194;2023-04-26T08:52:09;101897.34;;;7.78;69.70
53647;BME280;39550;52.230;5.194;2023-04-26T08:54:36;101837.25;;;7.47;69.30
53647;BME280;39550;52.230;5.194;2023-04-26T08:57:02;101825.06;;;7.41;69.50
53647;BME280;39550;52.230;5.194;2023-04-26T08:59:29;101726.59;;;6.89;68.93
53647;BME280;39550;52.230;5.194;2023-04-26T09:01:55;101890.19;;;7.93;69.21
53647;BME280;39550;52.230;5.194;2023-04-26T09:04:22;101823.16;;;7.60;69.13
53647;BME280;39550;52.230;5.194;2023-04-26T09:06:48;101769.25;;;7.34;69.16
53647;BME280;39550;52.230;5.194;2023-04-26T09:09:17;101811.88;;;7.55;68.83
53647;BME280;39550;52.230;5.194;2023-04-26T09:11:58;101854.47;;;7.75;68.57
53647;BME280;39550;52.230;5.194;2023-04-26T09:14:24;101836.13;;;7.63;69.38
53647;BME280;39550;52.230;5.194;2023-04-26T09:16:58;101825.72;;;7.60;69.09
53647;BME280;39550;52.230;5.194;2023-04-26T09:19:40;101817.13;;;7.58;68.55
53647;BME280;39550;52.230;5.194;2023-04-26T09:22:08;101868.09;;;7.97;68.38
53647;BME280;39550;52.230;5.194;2023-04-26T09:24:50;101834.81;;;7.74;69.03
53647;BME280;39550;52.230;5.194;2023-04-26T09:27:18;101795.41;;;7.48;68.24
53647;BME280;39550;52.230;5.194;2023-04-26T09:29:59;101793.47;;;7.42;69.22
53647;BME280;39550;52.230;5.194;2023-04-26T09:32:25;101887.00;;;7.99;68.96
53647;BME280;39550;52.230;5.194;2023-04-26T09:34:51;101849.97;;;7.68;69.21
53647;BME280;39550;52.230;5.194;2023-04-26T09:37:17;101837.88;;;7.65;68.99
53647;BME280;39550;52.230;5.194;2023-04-26T09:39:42;101790.22;;;7.46;69.10
53647;BME280;39550;52.230;5.194;2023-04-26T09:42:09;101833.72;;;7.67;69.15
53647;BME280;39550;52.230;5.194;2023-04-26T09:44:35;101803.03;;;7.46;68.57
53647;BME280;39550;52.230;5.194;2023-04-26T09:47:03;101833.72;;;7.67;68.79
53647;BME280;39550;52.230;5.194;2023-04-26T09:49:52;101827.81;;;7.70;68.27
53647;BME280;39550;52.230;5.194;2023-04-26T09:52:17;101870.81;;;8.01;68.58
53647;BME280;39550;52.230;5.194;2023-04-26T09:54:48;101897.81;;;8.14;68.67
53647;BME280;39550;52.230;5.194;2023-04-26T09:57:15;101838.38;;;7.79;68.09
53647;BME280;39550;52.230;5.194;2023-04-26T10:02:13;101868.94;;;7.97;68.61
53647;BME280;39550;52.230;5.194;2023-04-26T10:04:40;101890.91;;;8.13;69.02
53647;BME280;39550;52.230;5.194;2023-04-26T10:07:07;101795.78;;;7.59;68.10
53647;BME280;39550;52.230;5.194;2023-04-26T10:09:33;101886.78;;;8.17;68.15
53647;BME280;39550;52.230;5.194;2023-04-26T10:11:58;101856.19;;;7.99;68.18
53647;BME280;39550;52.230;5.194;2023-04-26T10:14:24;101822.69;;;7.70;68.85
53647;BME280;39550;52.230;5.194;2023-04-26T10:16:50;101858.59;;;7.94;68.73
53647;BME280;39550;52.230;5.194;2023-04-26T10:19:17;101839.31;;;7.81;68.36
53647;BME280;39550;52.230;5.194;2023-04-26T10:21:44;101885.00;;;8.16;68.26
53647;BME280;39550;52.230;5.194;2023-04-26T10:24:11;101889.38;;;8.18;68.64
53647;BME280;39550;52.230;5.194;2023-04-26T10:26:50;101840.38;;;7.87;68.44
53647;BME280;39550;52.230;5.194;2023-04-26T10:29:17;101892.81;;;8.19;68.47
53647;BME280;39550;52.230;5.194;2023-04-26T10:34:31;101888.78;;;8.26;67.84
53647;BME280;39550;52.230;5.194;2023-04-26T10:37:11;101848.78;;;8.08;67.81
53647;BME280;39550;52.230;5.194;2023-04-26T10:39:39;101881.25;;;8.32;67.91
53647;BME280;39550;52.230;5.194;2023-04-26T10:42:34;101872.56;;;8.27;67.95
53647;BME280;39550;52.230;5.194;2023-04-26T10:45:25;101885.69;;;8.36;67.18
53647;BME280;39550;52.230;5.194;2023-04-26T10:53:23;101859.47;;;8.21;67.80
53647;BME280;39550;52.230;5.194;2023-04-26T10:55:49;101869.25;;;8.31;67.62
53647;BME280;39550;52.230;5.194;2023-04-26T10:58:31;101860.84;;;8.35;67.59
53647;BME280;39550;52.230;5.194;2023-04-26T11:01:08;101859.19;;;8.37;67.79
53647;BME280;39550;52.230;5.194;2023-04-26T11:03:36;101852.00;;;8.27;67.34
53647;BME280;39550;52.230;5.194;2023-04-26T11:06:11;101873.97;;;8.44;68.05
53647;BME280;39550;52.230;5.194;2023-04-26T11:08:40;101873.88;;;8.41;67.26
53647;BME280;39550;52.230;5.194;2023-04-26T11:11:07;101865.31;;;8.41;67.20
53647;BME280;39550;52.230;5.194;2023-04-26T11:13:36;101854.72;;;8.31;67.42
53647;BME280;39550;52.230;5.194;2023-04-26T11:16:03;101864.41;;;8.40;67.79
53647;BME280;39550;52.230;5.194;2023-04-26T11:18:30;101834.75;;;8.23;67.92
53647;BME280;39550;52.230;5.194;2023-04-26T11:21:00;101807.53;;;8.02;67.62
53647;BME280;39550;52.230;5.194;2023-04-26T11:23:28;101781.94;;;7.79;68.55
53647;BME280;39550;52.230;5.194;2023-04-26T11:26:01;101860.38;;;8.21;68.16
53647;BME280;39550;52.230;5.194;2023-04-26T11:28:28;101823.53;;;7.95;68.67
53647;BME280;39550;52.230;5.194;2023-04-26T11:30:53;101809.06;;;7.97;69.04
53647;BME280;39550;52.230;5.194;2023-04-26T11:33:20;101795.91;;;7.88;67.56
53647;BME280;39550;52.230;5.194;2023-04-26T11:35:49;101840.75;;;8.23;68.23
53647;BME280;39550;52.230;5.194;2023-04-26T11:38:15;101792.03;;;7.99;67.80
53647;BME280;39550;52.230;5.194;2023-04-26T11:40:41;101829.84;;;8.30;68.46
53647;BME280;39550;52.230;5.194;2023-04-26T11:43:07;101783.53;;;8.01;68.02
53647;BME280;39550;52.230;5.194;2023-04-26T11:45:37;101824.72;;;8.30;68.08
53647;BME280;39550;52.230;5.194;2023-04-26T11:48:04;101794.78;;;8.05;67.97
53647;BME280;39550;52.230;5.194;2023-04-26T11:50:32;101835.03;;;8.32;67.43
53647;BME280;39550;52.230;5.194;2023-04-26T11:53:00;101848.28;;;8.44;67.90
53647;BME280;39550;52.230;5.194;2023-04-26T11:55:30;101855.25;;;8.47;67.53
53647;BME280;39550;52.230;5.194;2023-04-26T11:58:09;101752.63;;;7.98;67.32
53647;BME280;39550;52.230;5.194;2023-04-26T12:00:35;101854.22;;;8.67;66.85
53647;BME280;39550;52.230;5.194;2023-04-26T12:03:05;101816.69;;;8.73;66.27
53647;BME280;39550;52.230;5.194;2023-04-26T12:05:34;101780.72;;;8.45;66.43
53647;BME280;39550;52.230;5.194;2023-04-26T12:07:59;101851.88;;;8.75;66.88
53647;BME280;39550;52.230;5.194;2023-04-26T12:10:26;101852.22;;;8.59;67.39
53647;BME280;39550;52.230;5.194;2023-04-26T12:12:53;101776.63;;;7.99;67.29
53647;BME280;39550;52.230;5.194;2023-04-26T12:15:28;101843.59;;;8.31;67.62
53647;BME280;39550;52.230;5.194;2023-04-26T12:18:15;101852.16;;;8.31;67.64
53647;BME280;39550;52.230;5.194;2023-04-26T12:20:41;101847.47;;;8.19;67.81
53647;BME280;39550;52.230;5.194;2023-04-26T12:23:08;101849.16;;;8.19;67.56
53647;BME280;39550;52.230;5.194;2023-04-26T12:25:37;101830.00;;;8.09;68.65
53647;BME280;39550;52.230;5.194;2023-04-26T12:28:05;101731.94;;;7.42;67.86
53647;BME280;39550;52.230;5.194;2023-04-26T12:30:32;101872.59;;;8.28;67.83
53647;BME280;39550;52.230;5.194;2023-04-26T12:32:58;101801.75;;;7.83;68.10
53647;BME280;39550;52.230;5.194;2023-04-26T12:35:24;101881.16;;;8.29;67.60
53647;BME280;39550;52.230;5.194;2023-04-26T12:37:50;101881.16;;;8.29;67.68
53647;BME280;39550;52.230;5.194;2023-04-26T12:40:17;101854.25;;;8.17;68.05
53647;BME280;39550;52.230;5.194;2023-04-26T12:42:45;101820.31;;;8.00;67.54
53647;BME280;39550;52.230;5.194;2023-04-26T12:45:11;101781.06;;;7.79;67.94
53647;BME280;39550;52.230;5.194;2023-04-26T12:47:36;101676.63;;;7.25;67.84
53647;BME280;39550;52.230;5.194;2023-04-26T12:50:01;101865.25;;;8.39;68.37
53647;BME280;39550;52.230;5.194;2023-04-26T12:52:29;101718.56;;;7.51;68.02
53647;BME280;39550;52.230;5.194;2023-04-26T12:54:54;101865.19;;;8.38;67.22
53647;BME280;39550;52.230;5.194;2023-04-26T12:57:20;101845.06;;;8.24;67.79
53647;BME280;39550;52.230;5.194;2023-04-26T12:59:48;101783.78;;;7.83;67.50
53647;BME280;39550;52.230;5.194;2023-04-26T13:02:13;101784.72;;;7.86;68.16
53647;BME280;39550;52.230;5.194;2023-04-26T13:04:38;101871.13;;;8.35;68.66
53647;BME280;39550;52.230;5.194;2023-04-26T13:07:04;101876.25;;;8.35;68.13
53647;BME280;39550;52.230;5.194;2023-04-26T13:09:29;101864.94;;;8.30;68.30
53647;BME280;39550;52.230;5.194;2023-04-26T13:11:55;101858.16;;;8.32;67.95
53647;BME280;39550;52.230;5.194;2023-04-26T13:14:20;101845.22;;;8.29;68.56
53647;BME280;39550;52.230;5.194;2023-04-26T13:16:48;101785.13;;;7.98;67.98
53647;BME280;39550;52.230;5.194;2023-04-26T13:19:13;101849.72;;;8.36;67.53
53647;BME280;39550;52.230;5.194;2023-04-26T13:21:39;101863.31;;;8.58;67.58